Time;durP1;ratioP1;P1;durP2;ratioP2;P2;SDS_P1;SDS_P2;PMS_P1;PMS_P2;Temp;Humidity;BMP_temperature;BMP_pressure;BME280_temperature;BME280_humidity;BME280_pressure;Samples;Min_cycle;Max_cycle;Signal;HPM_P1;HPM_P2
2021/06/06 04:18:13;;;;;;;;;;;;;;;24.07;59.76;101370.78;5100498;27;1347;-73
2021/06/06 04:20:39;;;;;;;;;;;;;;;24.23;59.11;101379.56;5068237;28;862;-74
2021/06/06 04:23:05;;;;;;;;;;;;;;;24.20;58.86;101369.16;5066786;28;1585;-75
2021/06/06 04:25:30;;;;;;;;;;;;;;;24.13;59.43;101372.31;5066780;28;1656;-76
2021/06/06 04:27:56;;;;;;;;;;;;;;;24.19;59.80;101367.53;5052824;28;897;-82
2021/06/06 04:30:21;;;;;;;;;;;;;;;24.28;59.25;101365.69;5049205;28;1195;-82
2021/06/06 04:32:46;;;;;;;;;;;;;;;24.36;58.71;101360.63;5067473;28;1300;-83
2021/06/06 04:35:12;;;;;;;;;;;;;;;24.28;59.05;101367.63;5063806;28;1732;-74
2021/06/06 04:37:37;;;;;;;;;;;;;;;24.40;59.26;101367.16;5062046;28;1901;-77
2021/06/06 04:40:04;;;;;;;;;;;;;;;24.44;58.47;101366.22;5060505;28;1802;-72
2021/06/06 04:42:29;;;;;;;;;;;;;;;24.46;57.91;101354.91;5061711;28;1743;-71
2021/06/06 04:44:54;;;;;;;;;;;;;;;24.52;57.65;101353.72;5063355;28;1632;-71
2021/06/06 04:47:20;;;;;;;;;;;;;;;24.51;55.85;101360.34;5065016;28;1584;-72
2021/06/06 04:49:45;;;;;;;;;;;;;;;24.61;56.23;101354.63;5067451;28;893;-71
2021/06/06 04:52:12;;;;;;;;;;;;;;;24.69;55.83;101350.34;5067269;28;851;-76
2021/06/06 04:54:37;;;;;;;;;;;;;;;24.75;55.41;101349.13;5067719;28;873;-75
2021/06/06 04:57:04;;;;;;;;;;;;;;;24.70;55.38;101349.22;5059114;28;2018;-80
2021/06/06 04:59:29;;;;;;;;;;;;;;;24.14;53.58;101353.84;5048132;28;803;-79
2021/06/06 05:01:55;;;;;;;;;;;;;;;23.95;54.60;101361.38;5060682;28;1282;-79
2021/06/06 05:04:20;;;;;;;;;;;;;;;23.96;55.17;101350.06;5048532;28;866;-79
2021/06/06 05:06:45;;;;;;;;;;;;;;;24.09;55.44;101351.22;5048549;28;882;-79
2021/06/06 05:09:11;;;;;;;;;;;;;;;24.21;54.56;101346.03;5060959;28;1585;-78
2021/06/06 05:11:36;;;;;;;;;;;;;;;24.15;54.85;101347.25;5066821;28;1210;-78
2021/06/06 05:14:03;;;;;;;;;;;;;;;24.04;55.31;101340.28;5068457;28;803;-78
2021/06/06 05:16:28;;;;;;;;;;;;;;;24.09;56.12;101348.47;5066901;28;1862;-78
2021/06/06 05:18:55;;;;;;;;;;;;;;;23.91;56.30;101361.97;5066904;28;1534;-78
2021/06/06 05:21:20;;;;;;;;;;;;;;;23.79;54.15;101350.63;5067944;28;994;-78
2021/06/06 05:26:29;;;;;;;;;;;;;;;23.70;54.94;101360.66;5068169;28;809;-78
2021/06/06 05:28:55;;;;;;;;;;;;;;;23.72;54.01;101355.66;5058353;28;913;-78
2021/06/06 05:31:21;;;;;;;;;;;;;;;23.66;52.41;101354.13;5054869;28;846;-78
2021/06/06 05:33:46;;;;;;;;;;;;;;;23.52;54.90;101352.16;5054581;28;807;-78
2021/06/06 05:36:12;;;;;;;;;;;;;;;23.48;54.83;101358.53;5054354;28;1906;-78
2021/06/06 05:38:37;;;;;;;;;;;;;;;23.29;52.35;101359.34;5053058;28;1303;-78
2021/06/06 05:41:03;;;;;;;;;;;;;;;23.20;52.26;101358.41;5053404;28;1325;-78
2021/06/06 05:43:29;;;;;;;;;;;;;;;23.33;51.56;101359.59;5056254;28;849;-78
2021/06/06 05:45:55;;;;;;;;;;;;;;;23.38;53.33;101359.53;5039366;28;1626;-78
2021/06/06 05:48:21;;;;;;;;;;;;;;;23.57;55.32;101355.94;5034281;28;1330;-78
2021/06/06 05:50:48;;;;;;;;;;;;;;;23.49;52.24;101360.16;5043622;28;1436;-78
2021/06/06 05:53:13;;;;;;;;;;;;;;;23.45;52.85;101365.44;5047317;28;865;-78
2021/06/06 05:55:39;;;;;;;;;;;;;;;23.41;54.27;101364.41;5034426;28;799;-78
2021/06/06 05:58:04;;;;;;;;;;;;;;;23.62;54.82;101366.84;5034091;28;1957;-79
2021/06/06 06:00:32;;;;;;;;;;;;;;;23.46;52.23;101371.75;5042566;28;1412;-78
2021/06/06 06:02:57;;;;;;;;;;;;;;;23.40;54.13;101361.94;5048875;28;1286;-78
2021/06/06 06:05:23;;;;;;;;;;;;;;;23.41;52.90;101371.84;5052452;28;1559;-78
2021/06/06 06:07:49;;;;;;;;;;;;;;;23.52;53.90;101362.31;5043951;28;1334;-79
2021/06/06 06:10:18;;;;;;;;;;;;;;;23.60;55.63;101363.56;5050104;28;1697;-79
2021/06/06 06:12:43;;;;;;;;;;;;;;;23.79;55.39;101366.31;5049356;28;1295;-78
2021/06/06 06:15:09;;;;;;;;;;;;;;;23.77;54.89;101365.78;5052368;28;1298;-79
2021/06/06 06:17:35;;;;;;;;;;;;;;;23.51;55.00;101366.19;5041424;28;1967;-77
2021/06/06 06:20:00;;;;;;;;;;;;;;;23.49;53.18;101360.16;5046146;28;1517;-77
2021/06/06 06:22:25;;;;;;;;;;;;;;;23.70;54.28;101361.50;5049029;28;1585;-78
2021/06/06 06:24:51;;;;;;;;;;;;;;;23.64;53.76;101361.84;5050742;28;1352;-77
2021/06/06 06:27:16;;;;;;;;;;;;;;;23.52;53.24;101357.66;5053094;28;1458;-77
2021/06/06 06:29:41;;;;;;;;;;;;;;;23.52;53.53;101354.06;5053212;28;1249;-77
2021/06/06 06:32:07;;;;;;;;;;;;;;;23.68;54.04;101352.72;5053114;28;998;-78
2021/06/06 06:34:32;;;;;;;;;;;;;;;23.66;53.48;101345.88;5052793;28;1528;-77
2021/06/06 06:36:58;;;;;;;;;;;;;;;23.67;53.44;101347.50;5035412;28;1894;-71
2021/06/06 06:39:23;;;;;;;;;;;;;;;23.28;49.16;101343.16;5049725;28;775;-70
2021/06/06 06:41:48;;;;;;;;;;;;;;;23.05;50.61;101345.69;5031345;28;878;-76
2021/06/06 06:44:14;;;;;;;;;;;;;;;22.98;51.00;101347.13;5031205;28;1111;-72
2021/06/06 06:46:39;;;;;;;;;;;;;;;22.90;49.86;101345.88;5031933;28;898;-71
2021/06/06 06:49:05;;;;;;;;;;;;;;;22.93;50.76;101343.34;5042927;28;937;-73
2021/06/06 06:51:30;;;;;;;;;;;;;;;23.13;53.53;101338.72;5051754;28;1298;-72
2021/06/06 06:53:55;;;;;;;;;;;;;;;23.13;53.45;101342.28;5051221;28;936;-72
2021/06/06 06:56:24;;;;;;;;;;;;;;;23.16;54.10;101343.63;5044290;28;1906;-72
2021/06/06 06:58:50;;;;;;;;;;;;;;;23.43;55.47;101342.13;5045990;28;883;-68
2021/06/06 07:01:16;;;;;;;;;;;;;;;23.59;56.32;101340.75;5050066;28;838;-77
2021/06/06 07:03:41;;;;;;;;;;;;;;;23.66;54.60;101341.19;5049871;28;764;-77
2021/06/06 07:06:06;;;;;;;;;;;;;;;23.73;55.59;101338.06;5049865;28;917;-77
2021/06/06 07:08:33;;;;;;;;;;;;;;;23.76;55.97;101342.13;5033133;28;1480;-77
2021/06/06 07:10:59;;;;;;;;;;;;;;;23.57;51.75;101333.94;5038867;28;1632;-77
2021/06/06 07:13:25;;;;;;;;;;;;;;;23.61;53.77;101338.53;5037444;28;932;-77
2021/06/06 07:15:50;;;;;;;;;;;;;;;23.64;57.41;101337.09;5032495;28;1954;-71
2021/06/06 07:18:18;;;;;;;;;;;;;;;23.83;57.75;101332.41;5039904;28;1621;-68
2021/06/06 07:20:44;;;;;;;;;;;;;;;23.82;56.20;101330.75;5030950;28;1458;-71
2021/06/06 07:23:10;;;;;;;;;;;;;;;23.65;53.99;101330.50;5045650;28;1330;-69
2021/06/06 07:25:36;;;;;;;;;;;;;;;23.51;53.79;101331.25;5069224;28;811;-69
2021/06/06 07:28:02;;;;;;;;;;;;;;;23.69;54.16;101324.09;5057180;28;1159;-68
2021/06/06 07:30:29;;;;;;;;;;;;;;;23.64;55.87;101331.59;5049282;28;970;-70
2021/06/06 07:32:55;;;;;;;;;;;;;;;23.74;54.19;101328.66;5049393;28;827;-73
2021/06/06 07:35:22;;;;;;;;;;;;;;;23.63;54.52;101329.97;5048052;28;1695;-73
2021/06/06 07:37:47;;;;;;;;;;;;;;;23.69;55.76;101324.09;5036094;28;2033;-74
2021/06/06 07:40:15;;;;;;;;;;;;;;;23.70;54.71;101322.13;5039673;28;1725;-73
2021/06/06 07:42:40;;;;;;;;;;;;;;;23.73;55.48;101327.88;5047424;28;897;-73
2021/06/06 07:45:07;;;;;;;;;;;;;;;23.78;54.58;101320.66;5047959;28;949;-73
2021/06/06 07:47:32;;;;;;;;;;;;;;;23.78;54.17;101315.16;5048187;28;926;-73
2021/06/06 07:49:59;;;;;;;;;;;;;;;23.79;54.84;101320.38;5049026;28;905;-73
2021/06/06 07:52:24;;;;;;;;;;;;;;;23.75;53.64;101324.81;5048660;28;1245;-73
2021/06/06 07:54:49;;;;;;;;;;;;;;;23.76;54.60;101320.94;5049674;28;861;-73
2021/06/06 07:57:15;;;;;;;;;;;;;;;23.79;53.44;101322.31;5049853;28;1937;-74
2021/06/06 07:59:41;;;;;;;;;;;;;;;23.71;52.77;101327.34;5049798;28;849;-73
2021/06/06 08:02:07;;;;;;;;;;;;;;;23.72;54.14;101325.41;5049498;28;862;-73
2021/06/06 08:04:32;;;;;;;;;;;;;;;23.78;53.88;101317.91;5043362;28;1790;-73
2021/06/06 08:06:57;;;;;;;;;;;;;;;23.84;53.42;101316.72;5038016;28;1624;-73
2021/06/06 08:09:23;;;;;;;;;;;;;;;23.77;53.29;101319.88;5036192;28;1596;-73
2021/06/06 08:11:48;;;;;;;;;;;;;;;23.72;51.79;101319.91;5041257;28;1733;-73
2021/06/06 08:14:14;;;;;;;;;;;;;;;23.64;50.81;101324.19;5031995;28;1756;-73
2021/06/06 08:16:40;;;;;;;;;;;;;;;23.68;51.18;101319.72;5036355;28;1973;-73
2021/06/06 08:19:05;;;;;;;;;;;;;;;23.60;50.98;101316.81;5039590;28;810;-73
2021/06/06 08:21:35;;;;;;;;;;;;;;;23.68;52.21;101314.22;5038881;28;1240;-73
2021/06/06 08:24:01;;;;;;;;;;;;;;;23.82;52.42;101313.44;5049666;28;850;-73
2021/06/06 08:26:26;;;;;;;;;;;;;;;23.71;50.83;101313.59;5044595;28;1731;-73
2021/06/06 08:28:52;;;;;;;;;;;;;;;23.63;50.70;101310.72;5038425;28;867;-73
2021/06/06 08:31:19;;;;;;;;;;;;;;;23.58;51.13;101311.59;5029358;28;779;-73
2021/06/06 08:33:46;;;;;;;;;;;;;;;23.59;51.09;101315.19;5031628;28;1753;-73
2021/06/06 08:36:17;;;;;;;;;;;;;;;23.67;50.51;101309.81;5043013;28;1878;-73
2021/06/06 08:38:43;;;;;;;;;;;;;;;23.66;50.33;101308.19;5048926;28;1789;-74
2021/06/06 08:41:29;;;;;;;;;;;;;;;23.72;51.32;101308.91;5041705;28;1591;-73
2021/06/06 08:43:57;;;;;;;;;;;;;;;23.66;51.11;101318.38;5034627;28;1736;-73
2021/06/06 08:46:23;;;;;;;;;;;;;;;23.65;50.94;101311.25;5039931;28;1679;-73
2021/06/06 08:48:49;;;;;;;;;;;;;;;23.64;50.54;101304.09;5040753;28;1627;-73
2021/06/06 08:51:20;;;;;;;;;;;;;;;23.68;50.69;101302.38;5041869;28;1137;-73
2021/06/06 08:53:52;;;;;;;;;;;;;;;23.68;50.64;101294.97;5049375;28;866;-73
2021/06/06 08:56:22;;;;;;;;;;;;;;;23.73;50.52;101299.56;5047844;28;1924;-73
2021/06/06 08:58:53;;;;;;;;;;;;;;;23.68;50.41;101292.22;5047521;28;1487;-73
2021/06/06 09:01:34;;;;;;;;;;;;;;;23.70;50.60;101297.38;5049185;28;818;-73
2021/06/06 09:04:00;;;;;;;;;;;;;;;23.73;50.83;101292.09;5051405;28;878;-73
2021/06/06 09:06:37;;;;;;;;;;;;;;;23.78;50.61;101287.66;5052875;28;1290;-73
2021/06/06 09:09:03;;;;;;;;;;;;;;;23.78;50.72;101293.97;5046920;28;1692;-73
2021/06/06 09:11:31;;;;;;;;;;;;;;;23.81;50.69;101293.38;5037022;28;792;-73
2021/06/06 09:13:56;;;;;;;;;;;;;;;23.79;50.91;101281.88;5032844;28;834;-73
2021/06/06 09:16:26;;;;;;;;;;;;;;;23.81;50.99;101287.88;5041362;28;1964;-73
2021/06/06 09:19:12;;;;;;;;;;;;;;;23.86;50.40;101279.50;5052953;28;1247;-73
2021/06/06 09:21:53;;;;;;;;;;;;;;;23.86;50.39;101273.22;5050528;28;1518;-73
2021/06/06 09:24:24;;;;;;;;;;;;;;;23.80;50.75;101274.41;5053194;28;1405;-73
2021/06/06 09:26:49;;;;;;;;;;;;;;;23.76;50.37;101281.63;5033898;28;1653;-73
2021/06/06 09:29:14;;;;;;;;;;;;;;;23.75;50.41;101277.25;5047804;28;1066;-73
2021/06/06 09:31:40;;;;;;;;;;;;;;;23.69;50.72;101260.03;5047821;28;1574;-73
2021/06/06 09:34:07;;;;;;;;;;;;;;;23.72;49.98;101259.41;5050591;28;1221;-73
2021/06/06 09:36:39;;;;;;;;;;;;;;;23.79;50.02;101265.34;5047956;28;1898;-73
2021/06/06 09:39:04;;;;;;;;;;;;;;;23.82;49.83;101261.19;5039344;28;869;-73
2021/06/06 09:41:38;;;;;;;;;;;;;;;23.86;49.79;101262.19;5044999;28;1425;-73
2021/06/06 09:44:18;;;;;;;;;;;;;;;23.84;49.81;101262.50;5042790;28;1499;-73
2021/06/06 09:46:46;;;;;;;;;;;;;;;23.86;49.64;101256.69;5045826;28;873;-73
2021/06/06 09:49:11;;;;;;;;;;;;;;;23.85;49.43;101264.16;5034822;28;928;-73
2021/06/06 09:51:37;;;;;;;;;;;;;;;23.83;49.60;101258.13;5041470;28;1188;-73
2021/06/06 09:54:10;;;;;;;;;;;;;;;23.83;49.13;101269.13;5051403;28;753;-73
2021/06/06 09:56:36;;;;;;;;;;;;;;;23.76;48.53;101270.63;5051060;28;1870;-73
2021/06/06 09:59:14;;;;;;;;;;;;;;;23.80;48.50;101260.66;5051193;28;850;-73
2021/06/06 10:01:48;;;;;;;;;;;;;;;23.86;48.62;101259.44;5050803;28;854;-73
2021/06/06 10:04:22;;;;;;;;;;;;;;;23.88;49.07;101262.72;5051225;28;850;-73
2021/06/06 10:06:47;;;;;;;;;;;;;;;23.90;49.09;101260.47;5051682;28;1240;-73
2021/06/06 10:09:16;;;;;;;;;;;;;;;23.93;49.02;101257.13;5050846;28;933;-73
2021/06/06 10:11:54;;;;;;;;;;;;;;;23.95;48.90;101259.59;5050962;28;1175;-74
2021/06/06 10:14:23;;;;;;;;;;;;;;;23.93;48.98;101248.88;5050714;28;850;-73
2021/06/06 10:16:50;;;;;;;;;;;;;;;23.88;49.28;101248.97;5050665;28;1967;-73
2021/06/06 10:19:21;;;;;;;;;;;;;;;23.92;49.09;101253.56;5051115;28;815;-74
2021/06/06 10:21:46;;;;;;;;;;;;;;;23.92;49.62;101244.47;5050777;28;1419;-73
2021/06/06 10:24:15;;;;;;;;;;;;;;;23.90;49.51;101250.31;5048458;28;1438;-73
2021/06/06 10:26:46;;;;;;;;;;;;;;;24.00;48.67;101251.22;5038484;28;1701;-74
2021/06/06 10:29:41;;;;;;;;;;;;;;;23.96;48.47;101250.19;5039673;28;866;-73
2021/06/06 10:32:22;;;;;;;;;;;;;;;23.86;48.69;101249.25;5038268;28;1409;-73
2021/06/06 10:34:50;;;;;;;;;;;;;;;23.91;48.85;101245.63;5030714;28;1166;-73
2021/06/06 10:37:16;;;;;;;;;;;;;;;23.89;49.21;101242.34;5045972;28;1893;-73
2021/06/06 10:39:43;;;;;;;;;;;;;;;23.86;49.43;101238.25;5050435;28;791;-73
2021/06/06 10:42:13;;;;;;;;;;;;;;;23.87;49.49;101233.59;5051111;28;774;-73
2021/06/06 10:44:42;;;;;;;;;;;;;;;23.90;49.75;101232.97;5050402;28;889;-73
2021/06/06 10:47:17;;;;;;;;;;;;;;;23.92;49.82;101236.22;5050086;28;815;-73
2021/06/06 10:49:54;;;;;;;;;;;;;;;23.90;49.63;101225.53;5050359;28;906;-73
2021/06/06 10:52:25;;;;;;;;;;;;;;;23.92;49.88;101231.56;5050253;28;1233;-73
2021/06/06 10:54:54;;;;;;;;;;;;;;;23.95;49.63;101230.13;5049818;28;886;-73
2021/06/06 10:57:25;;;;;;;;;;;;;;;24.04;49.85;101233.78;5050145;28;1933;-73
2021/06/06 10:59:53;;;;;;;;;;;;;;;24.01;49.62;101231.66;5050136;28;818;-73
2021/06/06 11:02:48;;;;;;;;;;;;;;;24.03;49.19;101223.91;5049920;28;896;-73
2021/06/06 11:05:32;;;;;;;;;;;;;;;24.01;49.16;101217.09;5040804;28;1206;-73
2021/06/06 11:07:57;;;;;;;;;;;;;;;23.98;48.88;101213.00;5029812;28;969;-73
2021/06/06 11:10:26;;;;;;;;;;;;;;;24.00;49.12;101215.44;5033577;28;1448;-73
2021/06/06 11:12:52;;;;;;;;;;;;;;;23.98;49.49;101209.44;5048186;28;913;-73
2021/06/06 11:15:35;;;;;;;;;;;;;;;24.08;49.52;101207.28;5033809;28;813;-73
2021/06/06 11:18:06;;;;;;;;;;;;;;;24.03;49.73;101207.41;5045564;28;1898;-73
2021/06/06 11:20:33;;;;;;;;;;;;;;;24.04;49.61;101206.25;5051216;28;1341;-74
2021/06/06 11:22:58;;;;;;;;;;;;;;;24.09;49.46;101203.41;5051274;28;1145;-73
2021/06/06 11:25:44;;;;;;;;;;;;;;;24.13;49.35;101209.13;5043682;28;1482;-73
2021/06/06 11:28:22;;;;;;;;;;;;;;;24.12;49.48;101201.97;5045426;28;1470;-67
2021/06/06 11:30:47;;;;;;;;;;;;;;;24.11;49.69;101189.34;5044312;28;1819;-67
2021/06/06 11:33:14;;;;;;;;;;;;;;;24.13;49.87;101187.91;5048112;28;1983;-67
2021/06/06 11:35:39;;;;;;;;;;;;;;;24.13;50.18;101192.63;5035890;28;1291;-67
2021/06/06 11:38:23;;;;;;;;;;;;;;;24.15;49.92;101190.38;5036095;28;1957;-67
2021/06/06 11:40:50;;;;;;;;;;;;;;;24.17;49.90;101181.81;5033164;28;1992;-66
2021/06/06 11:43:25;;;;;;;;;;;;;;;24.13;49.99;101185.16;5039319;28;879;-67
2021/06/06 11:45:52;;;;;;;;;;;;;;;24.18;49.98;101183.44;5035361;28;2037;-66
2021/06/06 11:48:23;;;;;;;;;;;;;;;24.24;49.50;101182.19;5046638;28;1461;-67
2021/06/06 11:50:51;;;;;;;;;;;;;;;24.20;49.96;101186.69;5051233;28;1153;-67
2021/06/06 11:53:27;;;;;;;;;;;;;;;24.21;49.91;101182.81;5048542;28;1858;-67
2021/06/06 11:55:57;;;;;;;;;;;;;;;24.23;50.87;101189.66;5043189;28;1818;-67
2021/06/06 11:58:33;;;;;;;;;;;;;;;24.25;51.77;101186.59;5037351;28;1925;-67
2021/06/06 12:01:11;;;;;;;;;;;;;;;24.22;52.36;101177.00;5035889;28;1972;-67
2021/06/06 12:03:37;;;;;;;;;;;;;;;24.17;52.28;101181.81;5038772;28;1829;-67
2021/06/06 12:06:06;;;;;;;;;;;;;;;24.11;52.74;101172.84;5041475;28;2754;-67
2021/06/06 12:08:31;;;;;;;;;;;;;;;24.14;52.29;101177.72;5031751;28;2446;-67
2021/06/06 12:10:57;;;;;;;;;;;;;;;24.19;51.35;101182.31;5034955;28;1557;-67
2021/06/06 12:13:31;;;;;;;;;;;;;;;24.16;51.48;101169.97;5034122;28;2342;-67
2021/06/06 12:16:17;;;;;;;;;;;;;;;24.15;52.59;101176.59;5044433;28;1553;-67
2021/06/06 12:18:43;;;;;;;;;;;;;;;24.15;52.58;101173.84;5037162;28;1550;-67
2021/06/06 12:21:09;;;;;;;;;;;;;;;24.19;51.12;101176.81;5044831;28;1642;-67
2021/06/06 12:23:36;;;;;;;;;;;;;;;24.11;49.99;101168.16;5039861;28;1498;-67
2021/06/06 12:26:07;;;;;;;;;;;;;;;24.15;49.20;101167.50;5035306;28;1269;-67
2021/06/06 12:28:34;;;;;;;;;;;;;;;24.14;48.55;101166.72;5043842;28;1325;-67
2021/06/06 12:31:02;;;;;;;;;;;;;;;24.10;48.84;101166.50;5053085;28;1710;-67
2021/06/06 12:33:31;;;;;;;;;;;;;;;24.09;49.00;101167.63;5057729;28;1618;-67
2021/06/06 12:36:01;;;;;;;;;;;;;;;24.06;49.20;101154.47;5047115;28;1490;-67
2021/06/06 12:38:27;;;;;;;;;;;;;;;24.05;49.26;101161.13;5049879;28;1395;-67
2021/06/06 12:40:52;;;;;;;;;;;;;;;24.01;49.60;101151.06;5051440;28;1301;-67
2021/06/06 12:43:23;;;;;;;;;;;;;;;24.01;49.52;101154.59;5056093;28;1462;-67
2021/06/06 12:45:48;;;;;;;;;;;;;;;24.06;50.04;101143.47;5040360;28;1655;-67
2021/06/06 12:48:16;;;;;;;;;;;;;;;24.10;49.77;101140.94;5047618;28;1109;-67
2021/06/06 12:50:43;;;;;;;;;;;;;;;24.12;49.51;101142.25;5068105;28;1287;-67
2021/06/06 12:53:28;;;;;;;;;;;;;;;24.09;50.48;101148.38;5040482;28;1714;-67
2021/06/06 12:55:54;;;;;;;;;;;;;;;24.08;51.36;101141.22;5039996;28;1504;-67
2021/06/06 12:58:23;;;;;;;;;;;;;;;24.10;51.95;101150.00;5041767;28;1870;-67
2021/06/06 13:00:49;;;;;;;;;;;;;;;24.10;51.87;101141.72;5039077;28;1522;-67
2021/06/06 13:03:26;;;;;;;;;;;;;;;24.10;51.76;101147.25;5042706;28;1672;-68
2021/06/06 13:05:53;;;;;;;;;;;;;;;24.07;52.41;101145.13;5041890;28;1359;-67
2021/06/06 13:08:26;;;;;;;;;;;;;;;24.07;53.02;101150.63;5051839;28;1420;-67
2021/06/06 13:10:56;;;;;;;;;;;;;;;24.09;53.36;101142.06;5044852;28;1737;-67
2021/06/06 13:13:41;;;;;;;;;;;;;;;24.07;54.19;101149.81;5033024;28;817;-68
2021/06/06 13:16:17;;;;;;;;;;;;;;;24.05;54.41;101139.09;5037025;28;1960;-68
2021/06/06 13:18:54;;;;;;;;;;;;;;;24.05;54.66;101138.31;5051873;28;870;-67
2021/06/06 13:21:22;;;;;;;;;;;;;;;24.07;54.66;101138.81;5049186;28;2825;-68
2021/06/06 13:23:47;;;;;;;;;;;;;;;24.07;54.80;101139.63;5051771;28;865;-68
2021/06/06 13:26:21;;;;;;;;;;;;;;;24.07;54.33;101141.56;5040908;28;1344;-68
2021/06/06 13:28:56;;;;;;;;;;;;;;;24.08;54.64;101146.72;5051716;28;889;-67
2021/06/06 13:31:28;;;;;;;;;;;;;;;24.10;54.92;101143.69;5051499;28;957;-67
2021/06/06 13:33:53;;;;;;;;;;;;;;;24.11;54.82;101148.06;5051592;28;1079;-67
2021/06/06 13:36:19;;;;;;;;;;;;;;;24.07;55.00;101144.31;5051385;28;1886;-67
2021/06/06 13:38:44;;;;;;;;;;;;;;;24.07;54.83;101136.88;5051012;28;1556;-67
2021/06/06 13:41:12;;;;;;;;;;;;;;;24.08;55.27;101140.44;5050879;28;1488;-67
2021/06/06 13:43:38;;;;;;;;;;;;;;;24.10;55.26;101150.00;5051341;28;1524;-67
2021/06/06 13:46:03;;;;;;;;;;;;;;;24.12;55.01;101145.00;5051220;28;2022;-67
2021/06/06 13:48:30;;;;;;;;;;;;;;;24.13;54.73;101143.88;5050700;28;1563;-67
2021/06/06 13:50:55;;;;;;;;;;;;;;;24.10;55.30;101146.44;5051339;28;1541;-67
2021/06/06 13:53:26;;;;;;;;;;;;;;;24.08;55.12;101140.44;5046890;28;1719;-67
2021/06/06 13:55:51;;;;;;;;;;;;;;;24.08;55.34;101146.72;5037543;28;3199;-67
2021/06/06 13:58:18;;;;;;;;;;;;;;;24.11;55.26;101159.88;5041411;28;1937;-67
2021/06/06 14:00:43;;;;;;;;;;;;;;;24.12;55.60;101152.44;5044504;28;1502;-67
2021/06/06 14:03:14;;;;;;;;;;;;;;;24.10;55.58;101152.75;5047584;28;1434;-67
2021/06/06 14:05:40;;;;;;;;;;;;;;;24.12;55.64;101153.25;5048778;28;1337;-67
2021/06/06 14:08:06;;;;;;;;;;;;;;;24.11;55.56;101146.13;5050640;28;1570;-67
2021/06/06 14:10:38;;;;;;;;;;;;;;;24.10;55.76;101160.19;5050727;28;912;-67
2021/06/06 14:13:04;;;;;;;;;;;;;;;24.09;55.67;101156.63;5050624;28;1690;-67
2021/06/06 14:15:29;;;;;;;;;;;;;;;24.10;55.44;101155.50;5049954;28;1579;-67
2021/06/06 14:17:55;;;;;;;;;;;;;;;24.09;55.63;101147.56;5049647;28;1894;-67
2021/06/06 14:20:21;;;;;;;;;;;;;;;24.10;55.55;101155.50;5048936;28;2577;-67
2021/06/06 14:22:51;;;;;;;;;;;;;;;24.10;55.37;101150.00;5050970;28;858;-67
2021/06/06 14:25:16;;;;;;;;;;;;;;;24.09;55.49;101150.31;5050810;28;822;-67
2021/06/06 14:27:42;;;;;;;;;;;;;;;24.07;55.64;101156.13;5045597;28;2784;-67
2021/06/06 14:30:09;;;;;;;;;;;;;;;24.09;55.44;101150.31;5050440;28;855;-67
2021/06/06 14:32:34;;;;;;;;;;;;;;;24.11;54.45;101157.13;5049517;28;1575;-67
2021/06/06 14:35:00;;;;;;;;;;;;;;;24.01;52.25;101151.06;5048325;28;1625;-67
2021/06/06 14:37:25;;;;;;;;;;;;;;;23.96;51.35;101157.44;5050369;28;1898;-67
2021/06/06 14:39:50;;;;;;;;;;;;;;;23.77;52.27;101154.81;5039368;28;1743;-67
2021/06/06 14:42:16;;;;;;;;;;;;;;;23.94;52.93;101154.19;5034683;28;886;-67
2021/06/06 14:44:41;;;;;;;;;;;;;;;24.06;52.86;101150.94;5050425;28;1081;-67
2021/06/06 14:47:06;;;;;;;;;;;;;;;24.08;53.07;101154.19;5049700;28;1552;-67
2021/06/06 14:49:32;;;;;;;;;;;;;;;24.06;53.36;101154.47;5047393;28;1577;-67
2021/06/06 14:51:57;;;;;;;;;;;;;;;24.03;53.54;101151.56;5044656;28;1471;-67
2021/06/06 14:54:22;;;;;;;;;;;;;;;24.02;53.78;101163.66;5049753;28;1553;-67
2021/06/06 14:56:49;;;;;;;;;;;;;;;24.01;54.34;101159.31;5049749;28;1878;-67
2021/06/06 14:59:14;;;;;;;;;;;;;;;24.07;54.64;101167.13;5049497;28;1534;-67
2021/06/06 15:01:40;;;;;;;;;;;;;;;24.05;55.85;101168.56;5048801;28;853;-67
2021/06/06 15:04:06;;;;;;;;;;;;;;;24.02;56.73;101167.22;5050148;28;1574;-68
2021/06/06 15:06:32;;;;;;;;;;;;;;;24.05;58.23;101171.31;5049798;28;1544;-68
2021/06/06 15:08:57;;;;;;;;;;;;;;;24.10;57.32;101185.75;5045982;28;1744;-69
2021/06/06 15:11:23;;;;;;;;;;;;;;;23.86;54.81;101183.22;5039383;28;980;-68
2021/06/06 15:13:49;;;;;;;;;;;;;;;23.44;55.60;101182.38;5039599;28;1386;-68
2021/06/06 15:16:15;;;;;;;;;;;;;;;23.30;55.87;101190.59;5034072;28;1886;-68
2021/06/06 15:18:45;;;;;;;;;;;;;;;23.20;56.67;101203.69;5039701;28;1628;-68
2021/06/06 15:21:16;;;;;;;;;;;;;;;23.10;57.09;101219.22;5042061;28;1517;-68
2021/06/06 15:23:42;;;;;;;;;;;;;;;23.11;56.64;101198.88;5045974;28;826;-68
2021/06/06 15:26:07;;;;;;;;;;;;;;;23.04;57.05;101205.84;5047904;28;3228;-68
2021/06/06 15:28:34;;;;;;;;;;;;;;;22.91;57.61;101213.72;5043900;28;2611;-68
2021/06/06 15:30:59;;;;;;;;;;;;;;;22.90;57.45;101230.53;5055571;28;1114;-68
2021/06/06 15:33:25;;;;;;;;;;;;;;;22.90;57.27;101225.84;5049778;28;2501;-68
2021/06/06 15:35:51;;;;;;;;;;;;;;;22.86;57.25;101213.81;5049292;28;1233;-68
2021/06/06 15:38:19;;;;;;;;;;;;;;;22.92;57.11;101229.09;5063078;28;1949;-68
2021/06/06 15:40:44;;;;;;;;;;;;;;;22.94;56.80;101235.13;5069234;28;854;-68
2021/06/06 15:43:11;;;;;;;;;;;;;;;22.91;56.68;101235.69;5068795;28;1189;-68
2021/06/06 15:45:37;;;;;;;;;;;;;;;22.91;56.49;101232.94;5048957;28;1171;-68
2021/06/06 15:48:02;;;;;;;;;;;;;;;22.82;56.92;101242.16;5049334;28;1273;-68
2021/06/06 15:50:30;;;;;;;;;;;;;;;22.86;56.73;101232.22;5050519;28;1352;-68
2021/06/06 15:52:56;;;;;;;;;;;;;;;22.92;57.39;101237.34;5049043;28;826;-68
2021/06/06 15:55:22;;;;;;;;;;;;;;;22.97;56.99;101235.63;5045813;28;2880;-68
2021/06/06 15:57:48;;;;;;;;;;;;;;;22.84;57.12;101231.69;5027770;28;1914;-68
2021/06/06 16:00:15;;;;;;;;;;;;;;;22.90;57.09;101233.25;5027626;28;918;-69
2021/06/06 16:02:41;;;;;;;;;;;;;;;23.01;56.81;101236.66;5026859;28;1294;-68
2021/06/06 16:05:07;;;;;;;;;;;;;;;22.84;57.06;101231.69;5028277;28;945;-68
2021/06/06 16:07:34;;;;;;;;;;;;;;;22.70;57.59;101237.13;5031107;28;1772;-68
2021/06/06 16:09:59;;;;;;;;;;;;;;;22.68;57.42;101250.34;5035499;28;869;-68
2021/06/06 16:12:25;;;;;;;;;;;;;;;22.65;57.36;101242.69;5048425;28;1029;-68
2021/06/06 16:14:50;;;;;;;;;;;;;;;22.69;57.02;101235.47;5048492;28;877;-68
2021/06/06 16:17:15;;;;;;;;;;;;;;;22.67;56.56;101252.25;5048267;28;1914;-68
2021/06/06 16:19:40;;;;;;;;;;;;;;;22.64;56.30;101247.34;5048979;28;806;-68
2021/06/06 16:22:06;;;;;;;;;;;;;;;22.66;56.14;101258.06;5048692;28;1032;-68
2021/06/06 16:24:31;;;;;;;;;;;;;;;22.65;55.97;101248.97;5048818;28;818;-68
2021/06/06 16:26:56;;;;;;;;;;;;;;;22.62;55.43;101255.06;5048749;28;921;-68
2021/06/06 16:29:22;;;;;;;;;;;;;;;22.60;55.77;101251.00;5048177;28;946;-68
2021/06/06 16:31:47;;;;;;;;;;;;;;;22.58;55.41;101247.72;5047668;28;881;-68
2021/06/06 16:34:13;;;;;;;;;;;;;;;22.54;55.44;101240.06;5046434;28;3326;-68
2021/06/06 16:36:38;;;;;;;;;;;;;;;22.48;55.59;101240.44;5048634;28;1894;-68
2021/06/06 16:39:04;;;;;;;;;;;;;;;22.50;55.33;101257.44;5048754;28;885;-68
2021/06/06 16:41:30;;;;;;;;;;;;;;;22.45;55.42;101254.75;5048643;28;810;-68
2021/06/06 16:43:56;;;;;;;;;;;;;;;22.47;55.38;101241.53;5047813;28;854;-68
2021/06/06 16:46:21;;;;;;;;;;;;;;;22.50;55.43;101239.03;5048715;28;782;-68
2021/06/06 16:48:46;;;;;;;;;;;;;;;22.51;55.04;101259.06;5048603;28;894;-68
2021/06/06 16:51:12;;;;;;;;;;;;;;;22.56;54.86;101250.78;5048499;28;822;-68
2021/06/06 16:53:38;;;;;;;;;;;;;;;22.56;55.19;101252.69;5048623;28;818;-68
2021/06/06 16:56:04;;;;;;;;;;;;;;;22.46;55.81;101243.47;5048078;28;795;-68
2021/06/06 16:58:31;;;;;;;;;;;;;;;22.54;55.20;101240.06;5048094;28;1870;-68
2021/06/06 17:00:57;;;;;;;;;;;;;;;22.51;55.38;101242.59;5048530;28;854;-68
2021/06/06 17:03:24;;;;;;;;;;;;;;;22.52;55.52;101244.25;5048467;28;917;-68
2021/06/06 17:05:50;;;;;;;;;;;;;;;22.59;55.54;101238.38;5036717;28;3257;-68
2021/06/06 17:08:16;;;;;;;;;;;;;;;22.68;55.22;101237.41;5038608;28;1622;-68
2021/06/06 17:10:42;;;;;;;;;;;;;;;22.79;55.28;101240.81;5031767;28;1643;-68
2021/06/06 17:13:08;;;;;;;;;;;;;;;22.83;55.44;101246.53;5036389;28;875;-68